KBPI

Miley Memorial Field Airport

Big Piney, Wyoming, USA
METAR KBPI 172153Z AUTO VRB04KT 10SM CLR 28/M02 A3031 RMK AO2 SLP165 T02781017
Observed Flight Rules
Aug-17 @ 21:53 UTC (44 minutes ago) Visual Flight Rules
Wind Visibility Clouds
Variable at 4 knots 10 miles
  • Clear skies
Temperatures Readings
Current 28°C / 82°F
Dewpoint -2°C / 28°F
Humidity 14%
Altimeter 30.31" Hg
Pressure 1016.5 hPa
Elevation 2117
METAR KBPI 172153Z AUTO VRB04KT 10SM CLR 28/M02 A3031 RMK AO2 SLP165 T02781017
Observed Flight Rules
Aug-17 @ 21:53 UTC
(44 minutes ago)
VFR
Wind Visibility
Variable at 4 knots 10 miles
Clouds
  • Clear skies
Temperature Dewpoint
28°C / 82°F -2°C / 28°F
Humidity Altimeter Pressure
14% 30.31" Hg 1016.5 hPa